Rochester, Pennsylvania
Current Conditions -  °F | °C
As of 8:47 PM on Tuesday 27 Jan 2015 (Local Time) from KBVI Reporting Station
Overcast Overcast  
Wind Chill:   Ceiling: 1200
Heat Index: 18°   Visibility: 10mi
Dew Point: 14°   Wind: 8mph
Humidity: 86%   Direction: 330°NNW
Pressure: 30.07"   Gusts: NA
Location:  40.7°N, 80.29°W
Report Text: KBVI 280147Z 33007KT 10SM OVC012 M08/M10 A3007 RMK LAST
Loading
Personal Weather Stations






























Interactive Weather Map New forecast layout! Learn more

10-Day Weather Forecast

Advertisements
Track Severe Weather on mobile